Terminal Aerodrome Forecast
Issued by NWS

Home | Current Version | Previous Version | Text Only | Print | Product List | Glossary On
Versions: 1 2 3 4 5 6 7 8 9 10 11 12 13 14 15 16 17
000
FTUS45 KTFX 021739
TAFHVR
TAF
KHVR 021739Z 0218/0318 10011G19KT P6SM -SHRA SCT030 OVC060
     FM030200 12010KT P6SM -SHRA OVC025
     FM031700 12009KT P6SM FEW025 SCT070=

USA.gov is the U.S. government's official web portal to all federal, state and local government web resources and services.